Locust, Kentucky
Current Conditions -  °F | °C
As of 6:33 AM on Saturday 20 Dec 2014 (Local Time) from KIMS Reporting Station
Overcast Overcast  
Wind Chill: 30°   Ceiling: 6500
Heat Index: 30°   Visibility: 5mi
Dew Point: 27°   Wind: 0mph
Humidity: 86%   Direction: NA
Pressure: 30.28"   Gusts: NA
Location:  38.6825°N, 85.3715°W
Report Text: KIMS 201133Z AUTO 00000KT 5SM BKN065 OVC090 M01/M03 A3028 RMK AO1
Loading
Personal Weather Stations






























Interactive Weather Map New forecast layout! Learn more

10-Day Weather Forecast

Advertisements
Track Severe Weather on mobile